This is the latest recevied weather packets stored in our database for station/object WX4HP-13. If no packets are shown the sender has not sent any weather packets the latest 1 day(s).
| Time | Temp. | Humidity | Pressure | Rain* | Wind** | Luminosity | Snow |
|---|---|---|---|---|---|---|---|
| 1836274661 | 20° C | 81% | 1016.9 hPa | 0 mm | 0 m/s | - | - |
| 1836274511 | 19.44° C | 83% | 1016.8 hPa | 0 mm | 0 m/s | - | - |
| 1836274360 | 20° C | 81% | 1016.7 hPa | 0 mm | 0 m/s | - | - |
| 1836274212 | 20° C | 81% | 1016.8 hPa | 0 mm | 0 m/s | - | - |
| 1778047195 | 18.89° C | 73% | 1010.8 hPa | 0 mm | 0 m/s | - | - |
| 1778045395 | 18.89° C | 72% | 1011.4 hPa | 0 mm | 0 m/s | - | - |
| 1778045095 | 18.89° C | 72% | 1011.4 hPa | 0 mm | 0 m/s | - | - |
| 1778044495 | 18.89° C | 71% | 1011.4 hPa | 0 mm | 0 m/s | - | - |
| 1778044195 | 18.89° C | 71% | 1011.3 hPa | 0 mm | 0 m/s | - | - |
| 1778043896 | 18.89° C | 71% | 1011.4 hPa | 0 mm | 0 m/s | - | - |
| 1778043595 | 18.89° C | 71% | 1011.4 hPa | 0 mm | 0 m/s | - | - |
| 1778043296 | 18.89° C | 71% | 1011.4 hPa | 0 mm | 0 m/s | - | - |
| 1778042996 | 18.89° C | 71% | 1011.4 hPa | 0 mm | 0 m/s | - | - |
| 1778042695 | 18.89° C | 72% | 1011.3 hPa | 0 mm | 0 m/s | - | - |
| 1778042395 | 18.33° C | 74% | 1011.2 hPa | 0 mm | 0 m/s | - | - |
| 1778042095 | 18.33° C | 75% | 1011.2 hPa | 0 mm | 0 m/s | - | - |
| 1778041795 | 18.33° C | 76% | 1011.3 hPa | 0 mm | 0 m/s | - | - |
| 1778041495 | 18.33° C | 77% | 1011.3 hPa | 0 mm | 0 m/s | - | - |
| 1778039996 | 18.89° C | 72% | 1011.4 hPa | 0 mm | 0 m/s | - | - |
| 1778039695 | 18.89° C | 72% | 1011.5 hPa | 0 mm | 0 m/s | - | - |
| 1778039396 | 18.89° C | 72% | 1011.4 hPa | 0 mm | 0 m/s | - | - |
| 1778039095 | 18.89° C | 72% | 1011.2 hPa | 0 mm | 0 m/s | - | - |
| 1778038796 | 18.89° C | 72% | 1011.1 hPa | 0 mm | 0 m/s | - | - |
| 1778038495 | 19.44° C | 71% | 1011 hPa | 0 mm | 0 m/s | - | - |
| 1778038197 | 19.44° C | 71% | 1011.3 hPa | 0 mm | 0 m/s | - | - |
* Rain latest hour (hover to see other rain measurements)
** Current wind speed in m/s (hover to see current wind gust speed)